createdAt,value
2022-11-01T03:13:10.275Z,100893.53
2022-11-01T03:15:58.876Z,100890.78
2022-11-01T03:19:16.821Z,100890.78
2022-11-01T03:21:56.622Z,100903.66
2022-11-01T03:25:20.549Z,100911.00
2022-11-01T03:37:22.288Z,100917.22
2022-11-01T03:51:22.206Z,100958.19
2022-11-01T03:53:56.033Z,100965.53
2022-11-01T03:56:23.794Z,100964.69
2022-11-01T04:01:33.567Z,100971.38
2022-11-01T04:04:03.590Z,100983.53
2022-11-01T04:06:30.171Z,100995.25
2022-11-01T04:09:04.253Z,101003.84
2022-11-01T04:11:56.525Z,100992.53
2022-11-01T04:14:43.868Z,101005.84
2022-11-01T04:17:31.007Z,101013.34
2022-11-01T04:20:31.376Z,101018.81
2022-11-01T04:23:16.453Z,101027.84
2022-11-01T04:25:54.685Z,101038.00
2022-11-01T04:28:23.107Z,101041.91
2022-11-01T04:31:11.767Z,101037.97
2022-11-01T04:33:42.870Z,101048.16
2022-11-01T04:36:32.790Z,101052.84
2022-11-01T04:39:21.662Z,101064.56
2022-11-01T04:45:13.688Z,101068.88
2022-11-01T04:50:45.718Z,101092.34
2022-11-01T04:53:29.746Z,101095.09
2022-11-01T04:56:00.030Z,101102.91
2022-11-01T04:58:26.705Z,101109.97
2022-11-01T05:00:53.976Z,101106.47
2022-11-01T05:03:23.622Z,101119.75
2022-11-01T05:05:59.958Z,101125.22
2022-11-01T05:08:30.149Z,101129.53
2022-11-01T05:10:56.973Z,101121.31
2022-11-01T05:13:30.285Z,101127.59
2022-11-01T05:16:18.375Z,101128.00
2022-11-01T05:18:46.611Z,101119.03
2022-11-01T05:21:13.137Z,101112.41
2022-11-01T05:23:39.778Z,101124.13
2022-11-01T05:26:08.384Z,101130.78
2022-11-01T05:28:35.266Z,101132.34
2022-11-01T05:31:01.820Z,101126.53
2022-11-01T05:33:28.416Z,101124.94
2022-11-01T05:35:55.039Z,101131.97
2022-11-01T05:38:21.621Z,101126.16
2022-11-01T05:40:48.503Z,101120.28
2022-11-01T05:45:58.363Z,101125.41
2022-11-01T05:48:28.564Z,101142.59
2022-11-01T05:50:58.716Z,101132.81
2022-11-01T05:56:31.437Z,101132.41
2022-11-01T05:58:57.948Z,101137.88
2022-11-01T06:01:50.554Z,101142.97
2022-11-01T06:04:17.377Z,101138.25
2022-11-01T06:06:43.926Z,101152.69
2022-11-01T06:09:46.584Z,101151.53
2022-11-01T06:13:24.213Z,101149.94
2022-11-01T06:16:16.759Z,101173.34
2022-11-01T06:19:47.499Z,101174.53
2022-11-01T06:22:04.687Z,101179.22
2022-11-01T06:30:47.691Z,101192.09
2022-11-01T06:33:14.335Z,101186.22
2022-11-01T06:35:40.859Z,101188.56
2022-11-01T06:38:10.650Z,101209.63
2022-11-01T06:40:37.293Z,101217.44
2022-11-01T06:43:09.550Z,101210.00
2022-11-01T06:51:41.248Z,101218.56
2022-11-01T06:53:59.357Z,101222.06
2022-11-01T06:54:09.653Z,101234.53
2022-11-01T06:59:46.678Z,101238.81
2022-11-01T07:02:14.709Z,101244.69
2022-11-01T07:04:42.026Z,101246.19
2022-11-01T07:07:08.627Z,101240.75
2022-11-01T07:12:51.110Z,101255.59
2022-11-01T07:15:18.215Z,101252.88
2022-11-01T07:17:48.046Z,101266.88
2022-11-01T07:20:14.572Z,101284.41
2022-11-01T07:22:41.053Z,101295.72
2022-11-01T07:25:07.624Z,101283.22
2022-11-01T07:27:35.928Z,101290.28
2022-11-01T07:30:04.647Z,101285.19
2022-11-01T07:32:31.137Z,101294.97
2022-11-01T07:35:00.045Z,101293.78
2022-11-01T07:37:29.563Z,101300.41
2022-11-01T07:39:56.294Z,101307.44
2022-11-01T07:42:22.888Z,101305.88
2022-11-01T07:44:49.462Z,101305.06
2022-11-01T07:47:19.072Z,101317.56
2022-11-01T07:49:45.713Z,101330.03
2022-11-01T07:52:12.400Z,101330.03
2022-11-01T07:54:39.024Z,101326.53
2022-11-01T07:57:14.647Z,101324.56
2022-11-01T07:59:41.247Z,101327.31
2022-11-01T08:02:09.650Z,101324.56
2022-11-01T08:04:36.637Z,101330.81
2022-11-01T08:07:03.327Z,101332.75
2022-11-01T08:09:29.851Z,101341.72
2022-11-01T08:11:56.401Z,101335.91
2022-11-01T08:14:23.056Z,101355.03
2022-11-01T08:16:55.595Z,101360.09
2022-11-01T08:19:22.489Z,101358.94
2022-11-01T08:21:51.018Z,101364.03
2022-11-01T08:24:17.796Z,101372.59
2022-11-01T08:26:44.504Z,101369.84
2022-11-01T08:29:11.139Z,101372.22
2022-11-01T08:31:41.584Z,101371.06
2022-11-01T08:34:10.874Z,101380.03
2022-11-01T08:36:41.136Z,101383.16
2022-11-01T08:41:37.192Z,101388.22
2022-11-01T08:44:04.170Z,101400.72
2022-11-01T08:46:30.773Z,101399.53
2022-11-01T08:48:59.296Z,101406.97
2022-11-01T08:51:27.324Z,101419.84
2022-11-01T08:53:56.468Z,101408.16
2022-11-01T08:56:24.927Z,101418.72
2022-11-01T08:58:52.871Z,101414.03
2022-11-01T09:01:21.189Z,101423.00
2022-11-01T09:03:47.889Z,101422.22
2022-11-01T09:06:14.455Z,101417.53
2022-11-01T09:08:41.285Z,101436.28
2022-11-01T09:11:08.121Z,101449.53
2022-11-01T09:13:34.862Z,101444.09
2022-11-01T09:16:06.781Z,101445.66
2022-11-01T09:18:33.746Z,101447.66
2022-11-01T09:21:00.846Z,101444.19
2022-11-01T09:23:27.446Z,101455.91
2022-11-01T09:26:07.076Z,101462.16
2022-11-01T09:28:34.253Z,101453.19
2022-11-01T09:31:19.851Z,101460.22
2022-11-01T09:33:47.297Z,101470.78
2022-11-01T09:36:13.938Z,101463.00
2022-11-01T09:38:40.500Z,101467.66
2022-11-01T09:41:32.807Z,101470.00
2022-11-01T09:44:02.407Z,101473.94
2022-11-01T09:46:34.553Z,101489.19
2022-11-01T09:49:03.518Z,101479.47
2022-11-01T09:51:30.416Z,101493.91
2022-11-01T09:54:00.916Z,101495.88
2022-11-01T09:56:31.478Z,101494.72
2022-11-01T09:59:19.707Z,101492.75
2022-11-01T10:02:20.729Z,101506.06
2022-11-01T10:05:16.062Z,101513.88
2022-11-01T10:07:48.250Z,101502.94
2022-11-01T10:10:24.202Z,101546.28
2022-11-01T10:13:32.291Z,101517.38
2022-11-01T10:16:08.572Z,101524.06
2022-11-01T10:18:44.643Z,101538.13
2022-11-01T10:21:15.233Z,101534.22
2022-11-01T10:23:51.697Z,101529.94
2022-11-01T10:26:25.668Z,101538.16
2022-11-01T10:29:03.593Z,101533.06
2022-11-01T10:31:32.092Z,101544.81
2022-11-01T10:34:03.834Z,101534.66
2022-11-01T10:39:54.312Z,101536.63
2022-11-01T10:42:56.961Z,101536.63
2022-11-01T10:45:23.553Z,101518.69
2022-11-01T10:48:16.878Z,101523.38
2022-11-01T10:50:46.819Z,101531.97
2022-11-01T10:53:20.525Z,101525.31
2022-11-01T10:55:52.975Z,101526.13
2022-11-01T10:58:55.387Z,101526.50
2022-11-01T11:01:27.945Z,101531.97
2022-11-01T11:06:51.995Z,101540.59
2022-11-01T11:09:45.286Z,101539.78
2022-11-01T11:15:35.603Z,101537.88
2022-11-01T11:18:09.039Z,101550.41
2022-11-01T11:20:38.382Z,101543.34
2022-11-01T11:23:10.866Z,101542.19
2022-11-01T11:25:39.638Z,101524.59
2022-11-01T11:28:06.703Z,101536.72
2022-11-01T11:30:58.464Z,101537.50
2022-11-01T11:33:25.219Z,101545.31
2022-11-01T11:35:55.679Z,101554.34
2022-11-01T11:38:46.230Z,101572.72
2022-11-01T11:41:27.440Z,101556.69
2022-11-01T11:43:54.147Z,101551.19
2022-11-01T11:46:25.032Z,101561.78
2022-11-01T11:48:58.301Z,101557.84
2022-11-01T11:51:28.594Z,101560.19
2022-11-01T11:54:20.062Z,101564.91
2022-11-01T11:56:47.808Z,101558.22
2022-11-01T11:59:26.220Z,101565.66
2022-11-01T12:02:04.582Z,101555.50
2022-11-01T12:04:54.899Z,101560.97
2022-11-01T12:07:30.494Z,101547.69
2022-11-01T12:10:02.274Z,101552.78
2022-11-01T12:12:32.703Z,101563.72
2022-11-01T12:15:02.204Z,101562.56
2022-11-01T12:17:35.166Z,101558.25
2022-11-01T12:20:12.410Z,101556.69
2022-11-01T12:22:44.658Z,101557.06
2022-11-01T12:25:16.189Z,101550.41
2022-11-01T12:28:02.038Z,101555.13
2022-11-01T12:30:34.333Z,101554.31
2022-11-01T12:33:23.128Z,101550.81
2022-11-01T12:35:55.049Z,101549.66
2022-11-01T12:38:27.886Z,101550.81
2022-11-01T12:40:55.347Z,101537.50
2022-11-01T12:43:58.669Z,101544.53
2022-11-01T12:46:44.000Z,101540.66
2022-11-01T12:49:22.152Z,101548.88
2022-11-01T12:51:54.518Z,101535.56
2022-11-01T12:54:27.463Z,101540.22
2022-11-01T12:56:56.205Z,101532.81
2022-11-01T12:59:28.378Z,101536.72
2022-11-01T13:02:00.592Z,101524.19
2022-11-01T13:04:34.202Z,101530.47
2022-11-01T13:07:29.266Z,101527.72
2022-11-01T13:10:14.310Z,101527.31
2022-11-01T13:12:46.948Z,101522.63
2022-11-01T13:15:21.798Z,101527.31
2022-11-01T13:18:02.070Z,101532.03
2022-11-01T13:20:53.122Z,101524.97
2022-11-01T13:23:28.637Z,101510.88
2022-11-01T13:26:06.597Z,101514.03
2022-11-01T13:28:51.696Z,101510.50
2022-11-01T13:32:32.750Z,101510.13
2022-11-01T13:35:40.472Z,101508.94
2022-11-01T13:38:28.423Z,101511.66
2022-11-01T13:41:28.946Z,101511.66
2022-11-01T13:44:02.807Z,101509.31
2022-11-01T13:46:51.221Z,101529.28
2022-11-01T13:49:44.888Z,101503.44
2022-11-01T13:56:16.244Z,101526.53
2022-11-01T13:58:55.055Z,101514.78
2022-11-01T14:01:31.861Z,101523.81
2022-11-01T14:04:33.453Z,101510.88
2022-11-01T14:07:15.244Z,101528.09
2022-11-01T14:09:45.123Z,101535.94
2022-11-01T14:12:30.674Z,101521.44
2022-11-01T14:15:13.633Z,101523.03
2022-11-01T14:17:52.777Z,101529.28
2022-11-01T14:20:21.974Z,101523.81
2022-11-01T14:22:48.743Z,101527.72
2022-11-01T14:25:15.280Z,101553.94
2022-11-01T14:27:50.466Z,101528.91
2022-11-01T14:30:24.348Z,101540.25
2022-11-01T14:32:59.270Z,101520.31
2022-11-01T14:35:35.661Z,101527.75
2022-11-01T14:38:33.020Z,101520.69
2022-11-01T14:41:05.137Z,101526.94
2022-11-01T14:43:34.963Z,101520.69
2022-11-01T14:46:03.149Z,101535.94
2022-11-01T14:48:36.998Z,101546.09
2022-11-01T14:51:21.817Z,101548.47
2022-11-01T14:53:59.732Z,101556.66
2022-11-01T14:56:40.891Z,101543.78
2022-11-01T14:59:20.496Z,101545.31
2022-11-01T15:01:50.807Z,101540.25
2022-11-01T15:04:22.467Z,101534.78
2022-11-01T15:06:49.715Z,101532.81
2022-11-01T15:09:22.444Z,101533.63
2022-11-01T15:11:51.348Z,101531.63
2022-11-01T15:14:24.490Z,101531.63
2022-11-01T15:16:52.051Z,101522.66
2022-11-01T15:19:27.919Z,101525.38
2022-11-01T15:22:01.060Z,101528.91
2022-11-01T15:24:27.867Z,101525.00
2022-11-01T15:26:54.536Z,101517.94
2022-11-01T15:29:24.844Z,101524.22
2022-11-01T15:31:58.172Z,101522.66
2022-11-01T15:34:32.021Z,101528.47
2022-11-01T15:37:10.375Z,101523.00
2022-11-01T15:39:37.964Z,101525.34
2022-11-01T15:42:15.593Z,101523.00
2022-11-01T15:44:46.023Z,101526.13
2022-11-01T15:47:20.575Z,101534.34
2022-11-01T15:49:48.107Z,101524.16
2022-11-01T15:52:18.855Z,101524.53
2022-11-01T15:54:57.863Z,101533.16
2022-11-01T15:57:40.460Z,101535.09
2022-11-01T16:00:17.647Z,101520.25
2022-11-01T16:02:54.654Z,101527.28
2022-11-01T16:05:27.245Z,101539.41
2022-11-01T16:07:54.092Z,101536.28
2022-11-01T16:10:26.883Z,101537.44
2022-11-01T16:12:54.758Z,101547.97
2022-11-01T16:15:26.310Z,101539.00
2022-11-01T16:17:55.854Z,101535.47
2022-11-01T16:20:34.197Z,101544.84
2022-11-01T16:23:04.248Z,101538.97
2022-11-01T16:25:33.217Z,101542.88
2022-11-01T16:28:09.357Z,101548.34
2022-11-01T16:30:47.258Z,101535.06
2022-11-01T16:33:20.851Z,101551.06
2022-11-01T16:35:49.873Z,101549.50
2022-11-01T16:38:27.115Z,101543.22
2022-11-01T16:40:57.127Z,101541.25
2022-11-01T16:43:27.240Z,101540.47
2022-11-01T16:45:54.438Z,101538.91
2022-11-01T16:48:27.714Z,101541.66
2022-11-01T16:50:56.032Z,101543.22
2022-11-01T16:53:25.045Z,101542.03
2022-11-01T16:56:01.362Z,101543.22
2022-11-01T16:58:32.774Z,101550.25
2022-11-01T17:01:00.577Z,101553.00
2022-11-01T17:03:28.067Z,101544.78
2022-11-01T17:06:12.914Z,101539.72
2022-11-01T17:08:41.950Z,101550.28
2022-11-01T17:11:20.631Z,101543.63
2022-11-01T17:13:47.231Z,101540.91
2022-11-01T17:16:26.826Z,101538.97
2022-11-01T17:18:57.617Z,101537.41
2022-11-01T17:21:25.247Z,101546.00
2022-11-01T17:23:52.800Z,101548.75
2022-11-01T17:26:49.445Z,101553.03
2022-11-01T17:29:27.292Z,101555.38
2022-11-01T17:31:54.895Z,101549.91
2022-11-01T17:34:21.469Z,101545.22
2022-11-01T17:36:50.301Z,101547.19
2022-11-01T17:39:17.605Z,101556.56
2022-11-01T17:41:44.244Z,101552.28
2022-11-01T17:44:12.105Z,101565.94
2022-11-01T17:46:40.837Z,101560.06
2022-11-01T17:49:07.430Z,101563.22
2022-11-01T17:51:34.256Z,101560.88
2022-11-01T17:54:00.772Z,101557.75
2022-11-01T17:56:40.601Z,101554.59
2022-11-01T17:59:08.679Z,101556.94
2022-11-01T18:01:49.894Z,101562.03
2022-11-01T18:04:16.943Z,101560.06
2022-11-01T18:06:44.034Z,101566.72
2022-11-01T18:09:25.648Z,101557.75
2022-11-01T18:12:06.568Z,101565.16
2022-11-01T18:17:48.488Z,101544.44
2022-11-01T18:20:38.828Z,101556.16
2022-11-01T18:23:11.811Z,101555.78
2022-11-01T18:25:48.351Z,101558.09
2022-11-01T18:28:35.083Z,101556.94
2022-11-01T18:31:12.628Z,101558.47
2022-11-01T18:33:50.896Z,101562.34
2022-11-01T18:36:34.148Z,101564.72
2022-11-01T18:39:21.113Z,101558.06
2022-11-01T18:41:48.365Z,101572.13
2022-11-01T18:44:14.924Z,101568.19
2022-11-01T18:46:52.069Z,101566.25
2022-11-01T18:49:18.741Z,101561.56
2022-11-01T18:51:46.515Z,101570.94
2022-11-01T18:54:20.975Z,101563.13
2022-11-01T18:56:52.265Z,101565.84
2022-11-01T18:59:29.592Z,101552.56
2022-11-01T19:02:12.660Z,101546.72
2022-11-01T19:04:42.701Z,101551.00
2022-11-01T19:07:18.473Z,101558.44
2022-11-01T19:09:56.420Z,101559.22
2022-11-01T19:12:28.360Z,101560.03
2022-11-01T19:14:59.654Z,101551.03
2022-11-01T19:17:29.522Z,101553.72
2022-11-01T19:19:57.434Z,101560.75
2022-11-01T19:22:38.457Z,101564.66
2022-11-01T19:25:22.776Z,101563.13
2022-11-01T19:27:53.431Z,101574.44
2022-11-01T19:30:24.709Z,101564.25
2022-11-01T19:32:54.023Z,101567.00
2022-11-01T19:35:22.648Z,101556.84
2022-11-01T19:37:52.555Z,101566.63
2022-11-01T19:40:27.991Z,101560.38
2022-11-01T19:42:55.547Z,101575.59
2022-11-01T19:45:23.976Z,101572.09
2022-11-01T19:54:48.842Z,101543.50
2022-11-01T19:56:51.800Z,101551.69
2022-11-01T19:59:19.541Z,101537.59
2022-11-01T20:01:49.566Z,101536.03
2022-11-01T20:04:37.433Z,101528.97
2022-11-01T20:07:37.897Z,101542.97
2022-11-01T20:10:29.070Z,101543.38
2022-11-01T20:15:47.414Z,101541.78
2022-11-01T20:18:14.153Z,101525.78
2022-11-01T20:20:46.672Z,101538.25
2022-11-01T20:23:25.692Z,101530.09
2022-11-01T20:25:53.183Z,101531.66
2022-11-01T20:28:19.876Z,101517.59
2022-11-01T20:30:47.818Z,101512.13
2022-11-01T20:33:14.424Z,101501.97
2022-11-01T20:35:42.380Z,101507.03
2022-11-01T20:38:12.932Z,101523.78
2022-11-01T20:40:43.714Z,101522.59
2022-11-01T20:43:13.126Z,101528.84
2022-11-01T20:48:23.396Z,101521.44
2022-11-01T20:50:50.166Z,101534.72
2022-11-01T20:53:17.006Z,101534.72
2022-11-01T20:55:44.487Z,101538.59
2022-11-01T20:58:44.603Z,101551.06
2022-11-01T21:04:51.452Z,101541.19
2022-11-01T21:07:18.081Z,101537.63
2022-11-01T21:09:46.521Z,101531.41
2022-11-01T21:12:26.270Z,101522.38
2022-11-01T21:18:36.388Z,101539.09
2022-11-01T21:21:28.826Z,101548.81
2022-11-01T21:23:55.678Z,101548.00
2022-11-01T21:26:52.096Z,101542.56
2022-11-01T21:29:25.001Z,101541.38
2022-11-01T21:31:51.703Z,101533.94
2022-11-01T21:34:46.181Z,101547.22
2022-11-01T21:37:13.537Z,101533.59
2022-11-01T21:39:40.209Z,101530.84
2022-11-01T21:42:28.630Z,101535.91
2022-11-01T21:44:56.737Z,101537.03
2022-11-01T21:47:26.779Z,101529.63
2022-11-01T21:49:53.614Z,101536.63
2022-11-01T21:55:00.867Z,101544.41
2022-11-01T21:57:27.764Z,101554.91
2022-11-01T21:59:54.428Z,101546.31
2022-11-01T22:02:21.088Z,101548.63
2022-11-01T22:04:47.666Z,101558.72
2022-11-01T22:07:14.275Z,101542.75
2022-11-01T22:09:40.908Z,101553.66
2022-11-01T22:12:07.994Z,101552.09
2022-11-01T22:14:35.199Z,101547.81
2022-11-01T22:17:01.832Z,101548.53
2022-11-01T22:19:28.438Z,101549.66
2022-11-01T22:21:55.082Z,101546.09
2022-11-01T22:24:22.785Z,101549.22
2022-11-01T22:26:49.583Z,101552.69
2022-11-01T22:29:16.071Z,101543.69
2022-11-01T22:31:42.644Z,101544.84
2022-11-01T22:34:09.190Z,101507.44
2022-11-01T22:36:36.779Z,101507.44
2022-11-01T22:39:24.254Z,101508.22
2022-11-01T22:41:51.419Z,101486.81
2022-11-01T22:44:25.403Z,101491.50
2022-11-01T22:46:58.930Z,101483.31
2022-11-01T22:49:31.235Z,101476.25
2022-11-01T22:52:02.021Z,101478.22
2022-11-01T22:54:39.947Z,101468.44
2022-11-01T22:57:14.793Z,101467.72
2022-11-01T22:59:46.837Z,101467.72
2022-11-01T23:02:30.925Z,101470.44
2022-11-01T23:05:20.508Z,101468.09
2022-11-01T23:07:50.099Z,101458.34
2022-11-01T23:10:29.205Z,101461.06
2022-11-01T23:13:19.506Z,101464.56
2022-11-01T23:15:49.336Z,101470.75
2022-11-01T23:18:19.767Z,101475.44
2022-11-01T23:20:56.274Z,101475.44
2022-11-01T23:23:23.564Z,101470.75
2022-11-01T23:25:50.957Z,101471.94
2022-11-01T23:28:18.063Z,101467.66
2022-11-01T23:30:46.415Z,101466.47
2022-11-01T23:33:15.274Z,101462.56
2022-11-01T23:35:44.323Z,101460.97
2022-11-01T23:38:19.936Z,101475.03
2022-11-01T23:40:46.911Z,101478.94
2022-11-01T23:43:21.713Z,101479.72
2022-11-01T23:45:48.686Z,101475.44
2022-11-01T23:48:15.395Z,101473.84
2022-11-01T23:50:42.441Z,101471.91
2022-11-01T23:53:13.627Z,101480.47
2022-11-01T23:55:45.154Z,101467.63
2022-11-01T23:58:17.690Z,101472.69
